createdAt,value
2019-03-23T00:00:22.323Z,11.63
2019-03-23T00:05:39.288Z,13.93
2019-03-23T00:10:56.072Z,12.27
2019-03-23T00:16:13.000Z,14.20
2019-03-23T00:21:30.624Z,11.77
2019-03-23T00:26:47.592Z,11.40
2019-03-23T00:32:03.989Z,11.37
2019-03-23T00:37:20.655Z,12.97
2019-03-23T00:42:37.370Z,10.23
2019-03-23T00:47:53.792Z,11.57
2019-03-23T00:53:10.462Z,12.50
2019-03-23T00:58:27.087Z,11.60
2019-03-23T01:03:43.691Z,10.93
2019-03-23T01:09:00.379Z,13.57
2019-03-23T01:14:18.481Z,14.60
2019-03-23T01:19:35.255Z,13.00
2019-03-23T01:24:51.917Z,12.53
2019-03-23T01:30:10.420Z,12.00
2019-03-23T01:35:26.874Z,11.73
2019-03-23T01:40:43.553Z,10.63
2019-03-23T01:45:59.994Z,13.40
2019-03-23T01:51:16.583Z,13.97
2019-03-23T01:56:33.366Z,14.23
2019-03-23T02:01:50.288Z,13.33
2019-03-23T02:07:13.836Z,13.70
2019-03-23T02:12:24.855Z,15.13
2019-03-23T02:17:41.718Z,18.47
2019-03-23T02:22:58.139Z,16.17
2019-03-23T02:28:14.581Z,21.43
2019-03-23T02:33:31.037Z,14.73
2019-03-23T02:38:47.687Z,13.97
2019-03-23T02:44:04.359Z,13.10
2019-03-23T02:49:20.583Z,16.57
2019-03-23T02:54:37.045Z,13.60
2019-03-23T02:59:53.801Z,16.17
2019-03-23T03:05:10.917Z,16.17
2019-03-23T03:10:43.519Z,13.63
2019-03-23T03:16:00.042Z,15.87
2019-03-23T03:21:16.526Z,18.20
2019-03-23T03:26:33.245Z,19.53
2019-03-23T03:31:50.126Z,14.00
2019-03-23T03:37:06.664Z,20.80
2019-03-23T03:42:22.943Z,22.07
2019-03-23T03:47:41.385Z,14.43
2019-03-23T03:52:58.378Z,14.47
2019-03-23T03:58:14.892Z,14.63
2019-03-23T04:03:31.393Z,15.83
2019-03-23T04:08:50.391Z,17.67
2019-03-23T04:14:07.081Z,18.97
2019-03-23T04:19:23.474Z,17.47
2019-03-23T04:24:39.656Z,16.00
2019-03-23T04:29:56.120Z,17.90
2019-03-23T04:35:12.879Z,16.30
2019-03-23T04:40:29.520Z,17.97
2019-03-23T04:45:46.440Z,15.60
2019-03-23T04:51:02.769Z,18.63
2019-03-23T04:56:19.082Z,16.87
2019-03-23T05:01:35.508Z,21.03
2019-03-23T05:06:54.870Z,16.93
2019-03-23T05:12:11.278Z,18.67
2019-03-23T05:17:28.084Z,17.57
2019-03-23T05:22:44.838Z,15.63
2019-03-23T05:28:01.173Z,17.83
2019-03-23T05:33:17.642Z,19.47
2019-03-23T05:38:43.958Z,16.67
2019-03-23T05:43:54.102Z,16.10
2019-03-23T05:49:10.443Z,16.20
2019-03-23T05:54:26.968Z,17.67
2019-03-23T05:59:43.402Z,21.97
2019-03-23T06:04:59.876Z,17.93
2019-03-23T06:10:16.413Z,19.53
2019-03-23T06:15:32.889Z,16.27
2019-03-23T06:20:49.632Z,16.53
2019-03-23T06:26:06.478Z,16.83
2019-03-23T06:31:25.875Z,15.93
2019-03-23T06:36:42.506Z,15.10
2019-03-23T06:41:59.174Z,24.47
2019-03-23T06:47:15.808Z,16.73
2019-03-23T06:52:32.466Z,19.23
2019-03-23T06:57:48.888Z,22.43
2019-03-23T07:03:05.202Z,18.83
2019-03-23T07:08:31.543Z,18.33
2019-03-23T07:13:41.424Z,18.83
2019-03-23T07:18:58.185Z,19.77
2019-03-23T07:24:14.529Z,20.37
2019-03-23T07:29:30.653Z,19.17
2019-03-23T07:34:47.427Z,18.50
2019-03-23T07:40:03.862Z,21.10
2019-03-23T07:45:22.819Z,17.00
2019-03-23T07:50:39.499Z,20.90
2019-03-23T07:55:56.214Z,21.10
2019-03-23T08:01:13.131Z,21.80
2019-03-23T08:06:29.768Z,19.13
2019-03-23T08:11:46.725Z,18.27
2019-03-23T08:17:03.179Z,20.23
2019-03-23T08:22:19.955Z,16.93
2019-03-23T08:27:36.929Z,23.17
2019-03-23T08:32:53.627Z,18.10
2019-03-23T08:38:10.305Z,21.27
2019-03-23T08:43:26.917Z,20.97
2019-03-23T08:48:43.685Z,19.50
2019-03-23T08:54:01.712Z,16.93
2019-03-23T08:59:18.836Z,18.63
2019-03-23T09:04:36.442Z,19.73
2019-03-23T09:09:59.103Z,18.87
2019-03-23T09:15:13.707Z,18.87
2019-03-23T09:20:30.773Z,21.67
2019-03-23T09:25:47.805Z,22.33
2019-03-23T09:31:05.286Z,19.60
2019-03-23T09:36:23.458Z,25.20
2019-03-23T09:41:47.309Z,20.23
2019-03-23T09:47:03.970Z,22.60
2019-03-23T09:52:20.523Z,20.93
2019-03-23T09:57:36.853Z,25.33
2019-03-23T10:02:55.753Z,21.33
2019-03-23T10:08:20.535Z,24.33
2019-03-23T10:14:00.568Z,26.93
2019-03-23T10:19:38.996Z,26.33
2019-03-23T10:24:57.352Z,22.70
2019-03-23T10:30:14.627Z,28.10
2019-03-23T10:35:31.447Z,27.87
2019-03-23T10:40:47.987Z,24.33
2019-03-23T10:46:04.828Z,25.87
2019-03-23T10:51:22.515Z,30.87
2019-03-23T10:56:39.247Z,30.23
2019-03-23T11:01:56.038Z,32.30
2019-03-23T11:07:12.585Z,29.30
2019-03-23T11:12:29.055Z,26.70
2019-03-23T11:17:47.897Z,30.43
2019-03-23T11:23:04.702Z,30.23
2019-03-23T11:28:21.516Z,32.70
2019-03-23T11:33:41.005Z,28.57
2019-03-23T11:38:57.715Z,32.00
2019-03-23T11:44:13.891Z,26.73
2019-03-23T11:49:31.078Z,24.63
2019-03-23T11:54:47.674Z,27.57
2019-03-23T12:00:04.684Z,26.30
2019-03-23T12:05:21.493Z,27.57
2019-03-23T12:10:37.959Z,22.37
2019-03-23T12:15:54.517Z,24.03
2019-03-23T12:21:11.010Z,22.67
2019-03-23T12:26:27.359Z,23.23
2019-03-23T12:31:44.210Z,22.60
2019-03-23T12:37:01.122Z,21.83
2019-03-23T12:42:17.809Z,22.23
2019-03-23T12:47:34.878Z,22.23
2019-03-23T12:52:51.486Z,25.07
2019-03-23T12:58:08.371Z,20.63
2019-03-23T13:03:25.162Z,19.87
2019-03-23T13:08:41.514Z,18.37
2019-03-23T13:13:58.458Z,22.40
2019-03-23T13:19:14.963Z,18.27
2019-03-23T13:24:31.697Z,18.90
2019-03-23T13:29:48.645Z,18.27
2019-03-23T13:35:06.395Z,15.93
2019-03-23T13:40:23.346Z,17.50
2019-03-23T13:45:42.739Z,15.63
2019-03-23T13:50:58.512Z,16.47
2019-03-23T13:56:15.161Z,14.87
2019-03-23T14:01:32.152Z,17.67
2019-03-23T14:06:48.913Z,16.17
2019-03-23T14:12:05.453Z,20.60
2019-03-23T14:17:21.915Z,16.80
2019-03-23T14:22:39.953Z,12.00
2019-03-23T14:27:56.742Z,13.50
2019-03-23T14:33:12.982Z,14.33
2019-03-23T14:38:29.788Z,12.20
2019-03-23T14:43:46.763Z,9.07
2019-03-23T14:49:03.502Z,13.33
2019-03-23T14:54:20.009Z,12.07
2019-03-23T14:59:36.851Z,9.80
2019-03-23T15:04:53.394Z,7.20
2019-03-23T15:10:11.618Z,8.13
2019-03-23T15:15:28.124Z,10.93
2019-03-23T15:20:45.232Z,7.27
2019-03-23T15:26:01.880Z,9.73
2019-03-23T15:31:18.444Z,9.97
2019-03-23T15:36:34.930Z,7.03
2019-03-23T15:41:54.003Z,7.90
2019-03-23T15:47:11.392Z,10.17
2019-03-23T15:52:29.615Z,11.30
2019-03-23T15:57:46.388Z,6.03
2019-03-23T16:03:06.240Z,10.20
2019-03-23T16:08:23.412Z,9.33
2019-03-23T16:13:39.970Z,9.20
2019-03-23T16:18:56.541Z,8.50
2019-03-23T16:24:13.656Z,7.53
2019-03-23T16:29:30.170Z,7.13
2019-03-23T16:34:46.684Z,7.33
2019-03-23T16:40:03.259Z,7.67
2019-03-23T16:45:20.177Z,6.60
2019-03-23T16:50:36.694Z,8.63
2019-03-23T16:55:53.452Z,7.80
2019-03-23T17:01:09.916Z,6.07
2019-03-23T17:07:19.342Z,5.70
2019-03-23T17:12:55.847Z,8.23
2019-03-23T17:18:27.594Z,6.03
2019-03-23T17:25:16.339Z,6.13
2019-03-23T17:30:06.350Z,9.27
2019-03-23T17:35:27.448Z,33.00
2019-03-23T17:40:44.025Z,30.27
2019-03-23T17:46:06.389Z,31.97
2019-03-23T17:51:20.876Z,28.70
2019-03-23T17:56:40.539Z,33.57
2019-03-23T18:02:00.347Z,33.73
2019-03-23T18:07:22.804Z,30.33
2019-03-23T18:12:39.573Z,33.07
2019-03-23T18:18:05.990Z,35.53
2019-03-23T18:23:22.895Z,46.37
2019-03-23T18:28:39.442Z,34.27
2019-03-23T18:33:56.258Z,30.70
2019-03-23T18:39:16.810Z,30.80
2019-03-23T18:44:37.060Z,34.07
2019-03-23T18:49:53.837Z,26.23
2019-03-23T19:00:55.844Z,26.80
2019-03-23T19:06:17.189Z,29.13
2019-03-23T19:11:37.782Z,28.33
2019-03-23T19:16:52.456Z,21.97
2019-03-23T19:22:09.202Z,23.80
2019-03-23T19:27:27.332Z,27.67
2019-03-23T19:32:44.636Z,22.13
2019-03-23T19:38:02.456Z,26.10
2019-03-23T19:43:36.638Z,24.83
2019-03-23T19:48:53.508Z,21.07
2019-03-23T19:54:10.358Z,26.57
2019-03-23T19:59:29.039Z,27.17
2019-03-23T20:04:51.064Z,31.07
2019-03-23T20:10:08.023Z,24.30
2019-03-23T20:15:24.769Z,22.17
2019-03-23T20:20:41.463Z,20.00
2019-03-23T20:25:58.212Z,18.03
2019-03-23T20:31:14.820Z,17.50
2019-03-23T20:36:31.344Z,13.67
2019-03-23T20:41:48.022Z,16.07
2019-03-23T20:47:04.951Z,13.53
2019-03-23T20:52:21.645Z,15.97
2019-03-23T20:57:38.603Z,12.63
2019-03-23T21:02:55.486Z,13.50
2019-03-23T21:08:12.268Z,11.93
2019-03-23T21:13:28.979Z,15.00
2019-03-23T21:18:45.684Z,14.63
2019-03-23T21:24:02.189Z,17.20
2019-03-23T21:29:19.085Z,16.03
2019-03-23T21:34:36.029Z,17.23
2019-03-23T21:39:52.579Z,14.60
2019-03-23T21:45:15.691Z,15.17
2019-03-23T21:50:50.316Z,13.67
2019-03-23T21:56:14.666Z,17.83
2019-03-23T22:01:34.913Z,14.30
2019-03-23T22:06:53.987Z,13.07
2019-03-23T22:12:15.028Z,13.13
2019-03-23T22:17:31.771Z,14.97
2019-03-23T22:22:55.639Z,13.90
2019-03-23T22:28:28.450Z,14.83
2019-03-23T22:33:45.150Z,12.93
2019-03-23T22:39:06.840Z,15.00
2019-03-23T22:44:23.267Z,13.67
2019-03-23T22:49:45.194Z,17.23
2019-03-23T22:55:15.309Z,16.83
2019-03-23T23:00:46.679Z,17.27
2019-03-23T23:06:06.836Z,15.47
2019-03-23T23:11:23.498Z,12.60
2019-03-23T23:16:40.327Z,13.20
2019-03-23T23:21:57.267Z,13.83
2019-03-23T23:27:19.522Z,16.20
2019-03-23T23:32:36.636Z,15.10
2019-03-23T23:37:53.457Z,14.60
2019-03-23T23:43:15.490Z,16.03
2019-03-23T23:48:33.311Z,15.63
2019-03-23T23:53:50.083Z,17.80
2019-03-23T23:59:09.303Z,17.20
